Transformer Ol — 3EZY5 — position and weather

sailwx.info

Track history (hours):
 
Tides and Currents Weather Stations Pressure Air Temp Water Temp Dewpoint Dewpoint Depression Visibility Wind Speed Wind Dir Waves Ship Positions

Transformer Ol

Last reported at 2016-May-06 16:31 UTC. Time now 2016-May-06 16:50 UTC.
Position N 22°37' E 120°17'.

Length 169 m; draft 5.5 m.

Type: Cargo ship. MMSI: 372789000.

Date/timePositionNaut miles runAvg speedWind from/ knotsBaromVisibWave heightAir tempDewpointWater temp
2016-May-06 16:31N 22°37' E 120°17'0 0.0
2016-May-06 15:31N 22°37' E 120°17'0 0.0
2016-May-06 14:31N 22°37' E 120°17'0 0.0
2016-May-06 13:31N 22°37' E 120°17'0 0.0
2016-May-06 12:31N 22°37' E 120°17'0 0.0
2016-May-06 11:31N 22°37' E 120°17'0 0.0
2016-May-06 10:31N 22°37' E 120°17'0 0.0
2016-May-06 09:25N 22°37' E 120°17'0 0.0
2016-May-06 07:31N 22°37' E 120°17'0 0.0
2016-May-06 06:31N 22°37' E 120°17'0 0.0
2016-May-06 05:31N 22°37' E 120°17'0 0.0
2016-May-06 04:31N 22°37' E 120°17'0 0.0
2016-May-06 03:31N 22°37' E 120°17'0 0.0
2016-May-06 02:31N 22°37' E 120°17'0 0.0
2016-May-06 01:31N 22°37' E 120°17'0 0.0
2016-May-06 00:31N 22°37' E 120°17'0 0.0
2016-May-05 23:31N 22°37' E 120°17'0 0.0
2016-May-05 22:31N 22°37' E 120°17'0 0.0
2016-May-05 21:31N 22°37' E 120°17'0 0.0
2016-May-05 20:31N 22°37' E 120°17'0 0.0
2016-May-05 19:31N 22°37' E 120°17'0 0.0
2016-May-05 18:31N 22°37' E 120°17'0 0.0
2016-May-05 17:31N 22°37' E 120°17'0 0.0
2016-May-05 16:31N 22°37' E 120°17'0 0.0
2016-May-05 15:31N 22°37' E 120°17'0 0.0
2016-May-05 14:31N 22°37' E 120°17'0 0.0
2016-May-05 13:31N 22°37' E 120°17'0 0.0
2016-May-05 12:25N 22°37' E 120°17'0 0.0
2016-May-05 11:13N 22°37' E 120°17'0 0.0
2016-May-05 10:25N 22°37' E 120°17'0 0.0
2016-May-05 09:13N 22°37' E 120°17'0 0.0
2016-May-05 08:31N 22°37' E 120°17'0 0.0
2016-May-05 07:31N 22°37' E 120°17'0 0.0
2016-May-05 06:31N 22°37' E 120°17'0 0.0
2016-May-05 05:31N 22°37' E 120°17'0 0.0
2016-May-05 04:31N 22°37' E 120°17'0 0.0
2016-May-05 03:25N 22°37' E 120°17'0 0.0
2016-May-05 02:31N 22°37' E 120°17'0 0.0
2016-May-05 01:25N 22°37' E 120°17'0 0.0
2016-May-05 00:31N 22°37' E 120°17'0 0.0
2016-May-04 23:25N 22°37' E 120°17'0 0.0
2016-May-04 22:31N 22°37' E 120°17'0 0.0
2016-May-04 21:31N 22°37' E 120°17'0 0.0
2016-May-04 20:25N 22°37' E 120°17'0 0.0
2016-May-04 19:31N 22°37' E 120°17'0 0.0
2016-May-04 18:31N 22°37' E 120°17'0 0.0
2016-May-04 17:31N 22°37' E 120°17'0 0.0
2016-May-04 16:19N 22°37' E 120°17'0 0.0
2016-May-04 15:31N 22°37' E 120°17'0 0.0
2016-May-04 14:31N 22°37' E 120°17'0 0.0
2016-May-04 13:31N 22°37' E 120°17'0 0.0
2016-May-04 12:31N 22°37' E 120°17'0 0.0
2016-May-04 11:31N 22°37' E 120°17'0 0.0
2016-May-04 09:28N 22°37' E 120°17'0 0.0
2016-May-04 08:28N 22°37' E 120°17'0 0.0
2016-May-04 05:22N 22°37' E 120°17'0 0.0
2016-May-04 04:28N 22°37' E 120°17'0 0.0
2016-May-04 03:22N 22°37' E 120°17'0 0.0
2016-May-04 02:28N 22°37' E 120°17'1 1.4
2016-May-04 01:33N 22°37' E 120°16'6 6.3
2016-May-04 00:33N 22°37' E 120°09'5 5.0
2016-May-03 23:33N 22°33' E 120°05'7 6.6
2016-May-03 22:33N 22°27' E 120°03'  
Track history (hours):
 
Tides and Currents Weather Stations Pressure Air Temp Water Temp Dewpoint Dewpoint Depression Visibility Wind Speed Wind Dir Waves Ship Positions

Transformer Ol

Last reported at 2016-May-06 16:31 UTC. Time now 2016-May-06 16:50 UTC.
Position N 22°37' E 120°17'.

Length 169 m; draft 5.5 m.

Type: Cargo ship. MMSI: 372789000.

Date/timePositionNaut miles runAvg speedWind from/ knotsBaromVisibWave heightAir tempDewpointWater temp
2016-May-06 16:31N 22°37' E 120°17'0 0.0
2016-May-06 15:31N 22°37' E 120°17'0 0.0
2016-May-06 14:31N 22°37' E 120°17'0 0.0
2016-May-06 13:31N 22°37' E 120°17'0 0.0
2016-May-06 12:31N 22°37' E 120°17'0 0.0
2016-May-06 11:31N 22°37' E 120°17'0 0.0
2016-May-06 10:31N 22°37' E 120°17'0 0.0
2016-May-06 09:25N 22°37' E 120°17'0 0.0
2016-May-06 07:31N 22°37' E 120°17'0 0.0
2016-May-06 06:31N 22°37' E 120°17'0 0.0
2016-May-06 05:31N 22°37' E 120°17'0 0.0
2016-May-06 04:31N 22°37' E 120°17'0 0.0
2016-May-06 03:31N 22°37' E 120°17'0 0.0
2016-May-06 02:31N 22°37' E 120°17'0 0.0
2016-May-06 01:31N 22°37' E 120°17'0 0.0
2016-May-06 00:31N 22°37' E 120°17'0 0.0
2016-May-05 23:31N 22°37' E 120°17'0 0.0
2016-May-05 22:31N 22°37' E 120°17'0 0.0
2016-May-05 21:31N 22°37' E 120°17'0 0.0
2016-May-05 20:31N 22°37' E 120°17'0 0.0
2016-May-05 19:31N 22°37' E 120°17'0 0.0
2016-May-05 18:31N 22°37' E 120°17'0 0.0
2016-May-05 17:31N 22°37' E 120°17'0 0.0
2016-May-05 16:31N 22°37' E 120°17'0 0.0
2016-May-05 15:31N 22°37' E 120°17'0 0.0
2016-May-05 14:31N 22°37' E 120°17'0 0.0
2016-May-05 13:31N 22°37' E 120°17'0 0.0
2016-May-05 12:25N 22°37' E 120°17'0 0.0
2016-May-05 11:13N 22°37' E 120°17'0 0.0
2016-May-05 10:25N 22°37' E 120°17'0 0.0
2016-May-05 09:13N 22°37' E 120°17'0 0.0
2016-May-05 08:31N 22°37' E 120°17'0 0.0
2016-May-05 07:31N 22°37' E 120°17'0 0.0
2016-May-05 06:31N 22°37' E 120°17'0 0.0
2016-May-05 05:31N 22°37' E 120°17'0 0.0
2016-May-05 04:31N 22°37' E 120°17'0 0.0
2016-May-05 03:25N 22°37' E 120°17'0 0.0
2016-May-05 02:31N 22°37' E 120°17'0 0.0
2016-May-05 01:25N 22°37' E 120°17'0 0.0
2016-May-05 00:31N 22°37' E 120°17'0 0.0
2016-May-04 23:25N 22°37' E 120°17'0 0.0
2016-May-04 22:31N 22°37' E 120°17'0 0.0
2016-May-04 21:31N 22°37' E 120°17'0 0.0
2016-May-04 20:25N 22°37' E 120°17'0 0.0
2016-May-04 19:31N 22°37' E 120°17'0 0.0
2016-May-04 18:31N 22°37' E 120°17'0 0.0
2016-May-04 17:31N 22°37' E 120°17'0 0.0
2016-May-04 16:19N 22°37' E 120°17'0 0.0
2016-May-04 15:31N 22°37' E 120°17'0 0.0
2016-May-04 14:31N 22°37' E 120°17'0 0.0
2016-May-04 13:31N 22°37' E 120°17'0 0.0
2016-May-04 12:31N 22°37' E 120°17'0 0.0
2016-May-04 11:31N 22°37' E 120°17'0 0.0
2016-May-04 09:28N 22°37' E 120°17'0 0.0
2016-May-04 08:28N 22°37' E 120°17'0 0.0
2016-May-04 05:22N 22°37' E 120°17'0 0.0
2016-May-04 04:28N 22°37' E 120°17'0 0.0
2016-May-04 03:22N 22°37' E 120°17'0 0.0
2016-May-04 02:28N 22°37' E 120°17'1 1.4
2016-May-04 01:33N 22°37' E 120°16'6 6.3
2016-May-04 00:33N 22°37' E 120°09'5 5.0
2016-May-03 23:33N 22°33' E 120°05'7 6.6
2016-May-03 22:33N 22°27' E 120°03'  

Dump ship's entire track history